Bei Facebook empfehlenBei Twitter postenGoogle plusPinterest

Das Wetter im Erzgebirge am 30.07.2016

Wetter und Klima am 30.07.2016 Holzhau im Erzgebirge (630m ü.NN)
Letzte gemessene Temperatur und Uhrzeit der Messung23:45:00 Uhr13.30 °C
Temperatur (Maximum / Höchstwert) und Uhrzeit der Messung14:15:00 Uhr25.40 °C
Temperatur (Minimum / Tiefstwert) und Uhrzeit der Messung06:15:0011.70 °C
Errechneter Absolutwert der Temperaturschwankungen zwischen Tmin und Tmax des Tages13.70 K
Errechnete Tagesmitteltemperatur18.89896 °C
Gesamt - Niederschlag des Tages (in flüssiger Form)0.00 Liter / m²
Luftdruck (Maximum / Höchstwert) und Zeitpunkt der Messung22:15:00 Uhr1013.20 hPa
Luftdruck (Minimum / Tiefstwert) und Zeitpunkt der Messung05:00:00 Uhr1011.30 hPa
Errechneter Absolutwert der Luftdruckschwankungen des Tages1.90 hPa
Höchste gemessene Windgeschwindigkeit und Uhrzeit der Messung23:45:00 Uhr0.00 km/h
Errechnete Windhäufigkeit in Relation zu den Messwerten des Tages0.00000 %
Niedrigste Windkühle (Windchill) und Zeitpunkt der Messung06:15:00 Uhr11.70 °C
Taupunkt (Maximum / Höchstwert) und Uhrzeit der Messung08:15:00 Uhr17.40 °C
Taupunkt (Minimum / Tiefstwert) und Uhrzeit der Messung06:15:0010.60 °C
Anzahl der automatisch eingelesenen Messwerte 96

Detaillierte Wetter- und Klima- Messwerte für den 30.07.2016 in Holzhau im Erzgebirge (630m ü.NN)
ZeitTemperaturLuftdruckRel. LuftfeuchteWindWindrichtungWindchillTaupunktNiederschlag l/m²
23:45:0013.30 °C1012.60 hPa88.00 %11.40 °C 
23:30:0013.50 °C1012.60 hPa87.00 %11.40 °C 
23:15:0013.80 °C1013.00 hPa87.00 %11.70 °C 
23:00:0014.10 °C1013.00 hPa86.00 %11.80 °C 
22:45:0014.40 °C1013.10 hPa86.00 %12.10 °C 
22:30:0014.70 °C1013.10 hPa85.00 %12.20 °C 
22:15:0014.90 °C1013.20 hPa84.00 %12.20 °C 
22:00:0015.40 °C1013.10 hPa83.00 %12.50 °C 
21:45:0015.80 °C1013.10 hPa81.00 %12.50 °C 
21:30:0016.30 °C1013.00 hPa79.00 %12.70 °C 
21:15:0017.10 °C1012.90 hPa78.00 %13.20 °C 
21:00:0017.80 °C1012.90 hPa76.00 %13.50 °C 
20:45:0018.60 °C1012.60 hPa74.00 %13.90 °C 
20:30:0019.80 °C1012.50 hPa72.00 %14.60 °C 
20:15:0020.90 °C1012.50 hPa69.00 %15.00 °C 
20:00:0021.80 °C1012.40 hPa67.00 %15.40 °C 
19:45:0022.40 °C1012.40 hPa66.00 %15.70 °C 
19:30:0022.60 °C1012.40 hPa64.00 %15.40 °C 
19:15:0023.20 °C1012.20 hPa64.00 %16.00 °C 
19:00:0023.20 °C1012.30 hPa63.00 %15.80 °C 
18:45:0023.60 °C1012.20 hPa61.00 %15.60 °C 
18:30:0023.60 °C1012.20 hPa62.00 %15.90 °C 
18:15:0023.60 °C1012.20 hPa62.00 %15.90 °C 
18:00:0023.60 °C1012.20 hPa62.00 %15.90 °C 
17:45:0023.40 °C1012.20 hPa62.00 %15.70 °C 
17:30:0023.60 °C1012.10 hPa59.00 %15.10 °C 
17:15:0024.30 °C1012.20 hPa56.00 %15.00 °C 
17:00:0025.00 °C1012.10 hPa56.00 %15.60 °C 
16:45:0024.80 °C1012.10 hPa57.00 %15.70 °C 
16:30:0024.60 °C1012.00 hPa58.00 %15.80 °C 
16:15:0024.90 °C1012.00 hPa59.00 %16.30 °C 
16:00:0024.40 °C1012.20 hPa63.00 %16.90 °C 
15:45:0023.20 °C1012.30 hPa62.00 %15.50 °C 
15:30:0023.90 °C1012.30 hPa60.00 %15.70 °C 
15:15:0024.60 °C1012.30 hPa61.00 %16.60 °C 
15:00:0023.80 °C1012.20 hPa60.00 %15.60 °C 
14:45:0024.60 °C1012.30 hPa58.00 %15.80 °C 
14:30:0025.20 °C1012.30 hPa57.00 %16.10 °C 
14:15:0025.40 °C1012.20 hPa58.00 %16.50 °C 
14:00:0024.70 °C1012.20 hPa60.00 %16.40 °C 
13:45:0024.80 °C1012.30 hPa61.00 %16.80 °C 
13:30:0023.60 °C1012.30 hPa65.00 %16.60 °C 
13:15:0022.30 °C1012.30 hPa65.00 %15.40 °C 
13:00:0023.20 °C1012.40 hPa62.00 %15.50 °C 
12:45:0023.90 °C1012.40 hPa62.00 %16.20 °C 
12:30:0024.10 °C1012.30 hPa62.00 %16.40 °C 
12:15:0023.90 °C1012.30 hPa64.00 %16.70 °C 
12:00:0023.80 °C1012.30 hPa65.00 %16.80 °C 
11:45:0023.60 °C1012.50 hPa66.00 %16.90 °C 
11:30:0023.20 °C1012.40 hPa69.00 %17.20 °C 
11:15:0023.10 °C1012.50 hPa67.00 %16.60 °C 
11:00:0022.40 °C1012.40 hPa68.00 %16.20 °C 
10:45:0022.30 °C1012.40 hPa69.00 %16.30 °C 
10:30:0021.90 °C1012.30 hPa69.00 %16.00 °C 
10:15:0021.30 °C1012.40 hPa72.00 %16.00 °C 
10:00:0021.20 °C1012.10 hPa72.00 %16.00 °C 
09:45:0021.20 °C1012.00 hPa73.00 %16.20 °C 
09:30:0020.90 °C1011.80 hPa74.00 %16.10 °C 
09:15:0020.60 °C1011.70 hPa75.00 %16.00 °C 
09:00:0020.30 °C1011.70 hPa78.00 %16.30 °C 
08:45:0019.90 °C1011.60 hPa80.00 %16.30 °C 
08:30:0019.50 °C1011.50 hPa84.00 %16.70 °C 
08:15:0019.40 °C1011.50 hPa88.00 %17.40 °C 
08:00:0018.30 °C1011.50 hPa92.00 %17.00 °C 
07:45:0016.60 °C1011.70 hPa94.00 %15.60 °C 
07:30:0015.40 °C1011.70 hPa95.00 %14.60 °C 
07:15:0013.90 °C1011.60 hPa94.00 %13.00 °C 
07:00:0013.20 °C1011.70 hPa94.00 %12.30 °C 
06:45:0012.40 °C1012.00 hPa93.00 %11.30 °C 
06:30:0011.80 °C1011.70 hPa93.00 %10.70 °C 
06:15:0011.70 °C1011.70 hPa93.00 %10.60 °C 
06:00:0011.80 °C1011.60 hPa93.00 %10.70 °C 
05:45:0011.90 °C1011.60 hPa92.00 %10.60 °C 
05:30:0012.10 °C1011.50 hPa92.00 %10.80 °C 
05:15:0012.30 °C1011.60 hPa92.00 %11.00 °C 
05:00:0012.80 °C1011.30 hPa92.00 %11.50 °C 
04:45:0013.30 °C1011.50 hPa92.00 %12.00 °C 
04:30:0013.80 °C1011.40 hPa91.00 %12.40 °C 
04:15:0014.40 °C1011.30 hPa92.00 %13.10 °C 
04:00:0014.90 °C1011.40 hPa92.00 %13.60 °C 
03:45:0014.90 °C1011.40 hPa92.00 %13.60 °C 
03:30:0014.70 °C1011.50 hPa92.00 %13.40 °C 
03:15:0014.60 °C1011.60 hPa92.00 %13.30 °C 
03:00:0014.40 °C1011.60 hPa92.00 %13.10 °C 
02:45:0014.30 °C1011.60 hPa91.00 %12.90 °C 
02:30:0014.60 °C1011.70 hPa91.00 %13.10 °C 
02:15:0014.90 °C1011.70 hPa91.00 %13.40 °C 
02:00:0015.30 °C1011.60 hPa91.00 %13.80 °C 
01:45:0015.40 °C1012.00 hPa91.00 %13.90 °C 
01:30:0015.40 °C1012.20 hPa90.00 %13.80 °C 
01:15:0015.50 °C1012.30 hPa90.00 %13.90 °C 
01:00:0015.20 °C1012.30 hPa91.00 %13.70 °C 
00:45:0014.20 °C1012.10 hPa90.00 %12.60 °C 
00:30:0013.90 °C1011.90 hPa90.00 %12.30 °C 
00:15:0013.80 °C1012.00 hPa90.00 %12.20 °C 
00:00:0013.80 °C1012.10 hPa89.00 %12.00 °C 

Permanenter Link zu dieser Seite: Wetter im Erzgebirge am 30.07.2016
Performance-Info: Die Erstellung der Seite / Statistik(en) / Tabelle(n) erforderte 5 Datenbankserver-Abfrage(n) und dauerte 100 Millisekunden. (Dieser Messwert ist von der Gesamt-Auslastung des Servers abhängig.)
Erzgebirge - Wetter | Erzgebirge - Wetter (Mobilgeräte) | Komplette Klimadatenbank